Manti, Utah
Current Conditions -  °F | °C
As of 9:55 AM on Tuesday 27 Jan 2015 (Local Time) from KDTA Reporting Station
Broken Clouds Broken Clouds  
Wind Chill: 39°   Ceiling: 7500
Heat Index: 42°   Visibility: 10mi
Dew Point: 39°   Wind: 5mph
Humidity: 90%   Direction: 150°SSE
Pressure: 30.26"   Gusts: NA
Location:  39.27°N, 111.64°W
Report Text: KDTA 271655Z AUTO 15004KT 10SM BKN075 BKN120 05/04 A3026 RMK AO1 T00530038
Loading
Personal Weather Stations






























Interactive Weather Map New forecast layout! Learn more

10-Day Weather Forecast

Advertisements
Track Severe Weather on mobile